Time;durP1;ratioP1;P1;durP2;ratioP2;P2;SDS_P1;SDS_P2;PMS_P1;PMS_P2;Temp;Humidity;BMP_temperature;BMP_pressure;BME280_temperature;BME280_humidity;BME280_pressure;Samples;Min_cycle;Max_cycle;Signal;HPM_P1;HPM_P2
2021/05/27 00:00:33;;;;;;;14.60;10.57;;;;;;;16.61;76.88;99885.94;5031598;28;20508;-70
2021/05/27 00:03:00;;;;;;;13.82;11.60;;;;;;;16.61;77.23;99877.91;5031180;28;20609;-70
2021/05/27 00:05:26;;;;;;;16.20;12.63;;;;;;;16.62;77.70;99876.94;5031370;28;20107;-69
2021/05/27 00:07:52;;;;;;;17.65;12.60;;;;;;;16.62;77.63;99879.59;5031206;28;20034;-68
2021/05/27 00:10:22;;;;;;;15.32;12.60;;;;;;;16.65;77.80;99878.47;5031057;28;20102;-69
2021/05/27 00:12:48;;;;;;;16.73;12.13;;;;;;;16.66;77.60;99880.13;5033144;28;20036;-69
2021/05/27 00:15:14;;;;;;;16.95;13.27;;;;;;;16.61;77.49;99872.56;5034762;28;20037;-69
2021/05/27 00:17:40;;;;;;;20.73;15.45;;;;;;;16.49;77.86;99868.44;5031355;28;20037;-70
2021/05/27 00:20:07;;;;;;;17.55;14.00;;;;;;;16.40;78.03;99874.69;4995447;28;20074;-71
2021/05/27 00:22:34;;;;;;;19.92;15.55;;;;;;;16.25;78.45;99877.88;4995482;28;20035;-70
2021/05/27 00:25:00;;;;;;;20.02;14.23;;;;;;;16.19;78.50;99873.16;5026871;28;20043;-71
2021/05/27 00:27:26;;;;;;;19.30;14.80;;;;;;;16.12;79.04;99874.72;5035094;28;20073;-69
2021/05/27 00:29:52;;;;;;;18.65;14.45;;;;;;;16.05;79.26;99873.66;5033171;28;20494;-72
2021/05/27 00:32:17;;;;;;;22.05;14.77;;;;;;;16.01;79.14;99870.44;5034329;28;20037;-70
2021/05/27 00:34:43;;;;;;;18.67;15.27;;;;;;;16.00;79.21;99872.28;5034647;28;20049;-72
2021/05/27 00:37:09;;;;;;;19.33;14.98;;;;;;;15.98;79.48;99876.91;5034263;28;20052;-70
2021/05/27 00:39:35;;;;;;;21.55;16.00;;;;;;;15.98;79.27;99871.56;5034459;28;20095;-70
2021/05/27 00:42:01;;;;;;;17.85;13.98;;;;;;;15.99;79.06;99869.75;5034604;28;20451;-71
2021/05/27 00:44:31;;;;;;;19.08;15.35;;;;;;;15.98;78.82;99866.22;5034681;28;20459;-71
2021/05/27 00:46:59;;;;;;;19.27;15.05;;;;;;;15.99;78.82;99865.25;5034089;28;20185;-70
2021/05/27 00:49:25;;;;;;;;;;;;;;;15.98;78.76;99871.56;5035233;28;20086;-69
2021/05/27 00:51:51;;;;;;;17.80;14.98;;;;;;;15.97;78.73;99864.56;5033898;28;20328;-69
2021/05/27 00:54:18;;;;;;;16.27;12.45;;;;;;;15.98;78.32;99865.41;5032538;28;20055;-67
2021/05/27 00:56:44;;;;;;;18.90;13.15;;;;;;;15.95;78.24;99855.88;5033008;28;20098;-68
2021/05/27 00:59:10;;;;;;;17.42;13.93;;;;;;;15.93;78.55;99868.50;5032635;28;20029;-69
2021/05/27 01:01:36;;;;;;;21.75;15.13;;;;;;;15.90;79.06;99863.50;5033079;28;20164;-70
2021/05/27 01:04:03;;;;;;;18.77;14.52;;;;;;;15.95;78.67;99855.88;5034002;28;20037;-73
2021/05/27 01:06:29;;;;;;;17.20;13.20;;;;;;;15.99;78.28;99857.25;5016423;28;20038;-73
2021/05/27 01:08:55;;;;;;;18.10;13.48;;;;;;;15.95;78.30;99861.22;5034098;28;20476;-69
2021/05/27 01:11:22;;;;;;;17.65;13.38;;;;;;;15.92;78.23;99861.50;5032773;28;20119;-71
2021/05/27 01:13:48;;;;;;;16.67;13.73;;;;;;;15.91;78.21;99859.81;5034184;28;20470;-71
2021/05/27 01:16:19;;;;;;;17.83;14.27;;;;;;;15.91;78.38;99854.47;5033550;28;20136;-71
2021/05/27 01:18:46;;;;;;;20.75;16.35;;;;;;;15.95;78.67;99855.03;5032605;28;20048;-69
2021/05/27 01:21:12;;;;;;;19.70;16.15;;;;;;;15.94;78.56;99850.69;5033407;28;20466;-69
2021/05/27 01:23:38;;;;;;;23.17;17.45;;;;;;;15.91;78.91;99853.66;5028273;28;20044;-70
2021/05/27 01:26:06;;;;;;;28.00;18.05;;;;;;;15.92;79.42;99856.16;5013967;28;20055;-69
2021/05/27 01:28:33;;;;;;;;;;;;;;;15.96;79.33;99865.56;5013286;28;20046;-70
2021/05/27 01:31:00;;;;;;;23.15;17.17;;;;;;;15.98;79.29;99860.91;5013846;28;19960;-70
2021/05/27 01:33:33;;;;;;;24.38;18.08;;;;;;;16.06;79.34;99862.00;5014021;28;20064;-69
2021/05/27 01:36:00;;;;;;;21.50;16.13;;;;;;;16.15;78.95;99861.94;5012757;28;20042;-70
2021/05/27 01:38:28;;;;;;;19.90;16.10;;;;;;;16.15;78.55;99853.94;5013747;28;20038;-69
2021/05/27 01:40:56;;;;;;;23.23;16.60;;;;;;;16.16;78.45;99855.63;5028964;28;20426;-70
2021/05/27 01:43:24;;;;;;;18.00;15.27;;;;;;;16.17;78.32;99853.78;5012380;28;20073;-71
2021/05/27 01:45:53;;;;;;;22.38;17.83;;;;;;;16.22;78.27;99851.47;5013562;28;20069;-71
2021/05/27 01:48:20;;;;;;;22.63;17.07;;;;;;;16.14;78.63;99859.41;5012087;28;20068;-69
2021/05/27 01:50:47;;;;;;;25.05;17.95;;;;;;;16.11;78.65;99843.69;5012365;28;20356;-69
2021/05/27 01:53:14;;;;;;;24.00;17.52;;;;;;;16.07;78.61;99847.66;5013390;28;20129;-70
2021/05/27 01:55:46;;;;;;;24.17;17.90;;;;;;;16.13;79.38;99847.06;5012342;28;20509;-69
2021/05/27 01:58:12;;;;;;;22.15;18.83;;;;;;;16.22;79.30;99851.47;5013403;28;20032;-69
2021/05/27 02:00:39;;;;;;;21.83;17.25;;;;;;;16.21;78.66;99841.78;5010888;28;20641;-69
2021/05/27 02:03:07;;;;;;;22.50;17.67;;;;;;;16.16;78.48;99836.06;4993138;28;20073;-70
2021/05/27 02:05:34;;;;;;;21.40;16.42;;;;;;;16.06;78.48;99845.97;4991789;28;20030;-69
2021/05/27 02:08:02;;;;;;;19.57;16.10;;;;;;;16.05;78.23;99839.81;4993192;28;20062;-68
2021/05/27 02:10:36;;;;;;;19.38;15.00;;;;;;;16.05;78.20;99849.63;4992347;28;20723;-70
2021/05/27 02:13:02;;;;;;;21.98;16.80;;;;;;;16.11;78.38;99860.56;4991722;28;20035;-69
2021/05/27 02:15:30;;;;;;;21.33;16.90;;;;;;;16.18;78.65;99866.13;4993192;28;20403;-70
2021/05/27 02:17:59;;;;;;;20.85;16.75;;;;;;;16.22;78.99;99883.50;4992139;28;20030;-71
2021/05/27 02:20:24;;;;;;;21.05;14.77;;;;;;;16.13;78.28;99871.09;4993138;28;20450;-69
2021/05/27 02:22:50;;;;;;;20.25;14.73;;;;;;;16.12;78.19;99867.56;4991927;28;20069;-68
2021/05/27 02:25:38;;;;;;;18.75;15.48;;;;;;;16.15;78.17;99869.94;4992069;28;20082;-69
2021/05/27 02:28:08;;;;;;;25.73;19.13;;;;;;;16.14;78.53;99876.25;4991543;28;20038;-67
2021/05/27 02:30:33;;;;;;;34.10;23.30;;;;;;;16.16;79.13;99874.28;4992867;28;20494;-72
2021/05/27 02:33:05;;;;;;;37.50;25.50;;;;;;;16.17;78.87;99880.47;4991727;28;20539;-69
2021/05/27 02:35:34;;;;;;;27.00;18.75;;;;;;;16.21;79.34;99889.84;4992714;28;20104;-69
2021/05/27 02:38:01;;;;;;;28.17;19.85;;;;;;;16.13;79.67;99895.09;4991740;28;20050;-72
2021/05/27 02:40:28;;;;;;;26.52;19.35;;;;;;;16.08;79.70;99887.53;4991169;28;20513;-71
2021/05/27 02:42:55;;;;;;;27.83;20.13;;;;;;;16.08;79.74;99881.38;4991957;28;20045;-72
2021/05/27 02:45:22;;;;;;;27.60;18.92;;;;;;;16.11;80.17;99884.59;4992518;28;20141;-70
2021/05/27 02:47:49;;;;;;;29.15;19.52;;;;;;;16.13;80.15;99887.09;4991458;28;20034;-70
2021/05/27 02:50:18;;;;;;;24.77;18.95;;;;;;;16.16;79.91;99878.78;4991306;28;20038;-69
2021/05/27 02:52:44;;;;;;;25.13;18.13;;;;;;;16.21;79.88;99876.50;4991640;28;20050;-70
2021/05/27 02:55:11;;;;;;;29.40;21.00;;;;;;;16.12;80.02;99882.75;4993367;28;20097;-69
2021/05/27 02:57:37;;;;;;;189.88;121.22;;;;;;;16.04;80.03;99874.63;4994734;28;20026;-67
2021/05/27 03:00:06;;;;;;;21.85;15.50;;;;;;;16.10;80.04;99872.22;4999229;28;20414;-68
2021/05/27 03:02:47;;;;;;;18.35;15.15;;;;;;;16.14;79.85;99872.78;5008639;28;20090;-68
2021/05/27 03:05:14;;;;;;;20.02;14.25;;;;;;;16.08;79.58;99871.53;4998621;28;20039;-69
2021/05/27 03:07:42;;;;;;;19.98;14.73;;;;;;;16.09;80.08;99872.38;4992353;28;20092;-71
2021/05/27 03:10:08;;;;;;;16.75;13.50;;;;;;;16.11;79.36;99865.03;5008500;28;20050;-69
2021/05/27 03:12:36;;;;;;;18.05;14.35;;;;;;;16.16;79.36;99874.28;5012211;28;20045;-69
2021/05/27 03:15:06;;;;;;;16.92;13.15;;;;;;;16.27;79.47;99865.22;4994061;28;20502;-70
2021/05/27 03:17:33;;;;;;;16.85;13.70;;;;;;;16.34;79.08;99860.13;5010675;28;20042;-70
2021/05/27 03:20:00;;;;;;;19.90;15.35;;;;;;;16.44;79.90;99862.75;5010564;28;20097;-69
2021/05/27 03:22:26;;;;;;;22.30;15.32;;;;;;;16.51;79.99;99871.81;5011353;28;20057;-68
2021/05/27 03:24:52;;;;;;;17.13;14.68;;;;;;;16.57;79.61;99865.84;5011334;28;20406;-69
2021/05/27 03:27:18;;;;;;;20.00;14.88;;;;;;;16.62;79.35;99862.72;5009683;28;20184;-69
2021/05/27 03:29:45;;;;;;;21.13;16.23;;;;;;;16.54;79.54;99860.00;5010130;28;20261;-68
2021/05/27 03:32:13;;;;;;;21.70;15.48;;;;;;;16.63;80.23;99862.56;5009552;28;20038;-69
2021/05/27 03:34:40;;;;;;;20.58;15.82;;;;;;;16.71;79.58;99866.31;5009749;28;20044;-67
2021/05/27 03:37:07;;;;;;;23.85;17.13;;;;;;;16.70;79.39;99867.28;5010243;28;20037;-68
2021/05/27 03:39:36;;;;;;;21.17;16.17;;;;;;;16.74;79.43;99866.00;5010558;28;20049;-70
2021/05/27 03:42:02;;;;;;;23.00;15.88;;;;;;;16.78;79.09;99872.72;5011965;28;20042;-67
2021/05/27 03:44:28;;;;;;;19.50;14.38;;;;;;;16.65;78.45;99873.13;5011529;28;20113;-67
2021/05/27 03:46:56;;;;;;;145.45;85.15;;;;;;;16.44;78.56;99870.75;5012220;28;20046;-68
2021/05/27 03:49:22;;;;;;;20.77;15.15;;;;;;;16.48;78.78;99870.28;5014187;28;20048;-67
2021/05/27 03:51:47;;;;;;;20.77;16.02;;;;;;;16.50;78.72;99870.13;5015258;28;20030;-67
2021/05/27 03:54:14;;;;;;;21.13;16.33;;;;;;;16.59;79.27;99873.72;5013761;28;20026;-68
2021/05/27 03:56:41;;;;;;;16.65;14.38;;;;;;;16.69;78.64;99865.63;5014119;28;20049;-68
2021/05/27 04:02:12;;;;;;;17.92;12.68;;;;;;;16.48;77.83;99880.13;5014335;28;20087;-68
2021/05/27 04:07:42;;;;;;;17.13;13.82;;;;;;;16.56;78.04;99879.34;5006089;28;20061;-70
2021/05/27 04:10:09;;;;;;;19.33;14.05;;;;;;;16.53;77.68;99880.50;4998626;28;20168;-68
2021/05/27 04:12:47;;;;;;;17.88;14.15;;;;;;;16.53;77.69;99880.50;5010019;28;20348;-68
2021/05/27 04:15:32;;;;;;;18.52;14.70;;;;;;;16.66;78.08;99877.47;5001481;28;20041;-68
2021/05/27 04:17:59;;;;;;;17.50;13.85;;;;;;;16.72;77.34;99868.81;4995648;28;20080;-70
2021/05/27 04:20:30;;;;;;;18.73;14.02;;;;;;;16.78;76.87;99875.38;4995055;28;20085;-68
2021/05/27 04:22:57;;;;;;;17.15;13.68;;;;;;;16.98;76.11;99874.25;4995532;28;20042;-67
2021/05/27 04:25:25;;;;;;;17.58;13.95;;;;;;;17.28;76.12;99879.31;5024524;28;20038;-67
2021/05/27 04:27:53;;;;;;;17.30;13.43;;;;;;;17.31;75.31;99884.34;4995082;28;20034;-70
2021/05/27 04:30:20;;;;;;;14.13;11.73;;;;;;;17.26;74.93;99887.50;4994337;28;20188;-69
2021/05/27 04:32:55;;;;;;;13.35;11.20;;;;;;;17.21;74.72;99884.44;4993886;28;20524;-68
2021/05/27 04:35:23;;;;;;;16.48;13.40;;;;;;;17.19;75.14;99885.59;4993830;28;20041;-69
2021/05/27 04:37:49;;;;;;;15.32;12.05;;;;;;;17.19;75.10;99886.44;4994472;28;20034;-68
2021/05/27 04:40:15;;;;;;;15.23;12.43;;;;;;;17.12;75.26;99888.91;4993793;28;20037;-68
2021/05/27 04:42:41;;;;;;;15.45;12.60;;;;;;;17.07;75.38;99882.31;4994064;28;20114;-69
2021/05/27 04:45:08;;;;;;;16.73;13.18;;;;;;;17.02;75.94;99884.63;4993828;28;20034;-70
2021/05/27 04:47:34;;;;;;;16.08;11.82;;;;;;;17.00;75.66;99879.44;4994411;28;20121;-69
2021/05/27 04:50:00;;;;;;;17.75;14.27;;;;;;;16.88;76.17;99878.81;4994832;28;20038;-70
2021/05/27 04:52:26;;;;;;;19.20;13.93;;;;;;;16.87;76.38;99887.81;4994275;28;20038;-70
2021/05/27 04:54:52;;;;;;;16.35;13.98;;;;;;;16.83;76.83;99883.78;5009178;28;20034;-68
2021/05/27 04:57:17;;;;;;;22.60;17.92;;;;;;;16.82;76.33;99877.59;4994556;28;20129;-69
2021/05/27 04:59:43;;;;;;;16.95;13.02;;;;;;;16.82;75.98;99882.09;5009250;28;20121;-69
2021/05/27 05:02:09;;;;;;;15.27;13.32;;;;;;;16.84;75.82;99872.09;5009647;28;20379;-68
2021/05/27 05:04:35;;;;;;;15.23;11.50;;;;;;;16.97;75.32;99872.59;4994649;28;20061;-70
2021/05/27 05:07:00;;;;;;;13.55;11.23;;;;;;;17.14;74.66;99875.38;4994627;28;20034;-68
2021/05/27 05:09:28;;;;;;;13.68;11.73;;;;;;;17.20;74.55;99869.41;4994101;28;20038;-69
2021/05/27 05:11:54;;;;;;;15.80;12.82;;;;;;;17.30;74.26;99871.97;4994655;28;20174;-68
2021/05/27 05:14:20;;;;;;;15.57;12.52;;;;;;;17.29;74.08;99871.13;4994135;28;20038;-70
2021/05/27 05:16:45;;;;;;;16.90;13.43;;;;;;;17.32;74.64;99871.81;4994253;28;20057;-69
2021/05/27 05:19:11;;;;;;;15.57;13.45;;;;;;;17.32;74.59;99863.78;4994030;28;20604;-69
2021/05/27 05:21:37;;;;;;;15.43;12.88;;;;;;;17.40;74.71;99866.53;4993889;28;20038;-68
2021/05/27 05:24:27;;;;;;;13.10;11.13;;;;;;;17.27;74.39;99873.13;5018852;28;20621;-70
2021/05/27 05:26:53;;;;;;;15.85;13.00;;;;;;;17.16;74.52;99869.84;5033530;28;20148;-69
2021/05/27 05:29:19;;;;;;;13.13;11.43;;;;;;;17.21;74.72;99870.22;5033133;28;20037;-68
2021/05/27 05:31:45;;;;;;;23.08;19.38;;;;;;;17.27;74.65;99873.13;5032097;28;20382;-68
2021/05/27 05:34:11;;;;;;;18.27;13.27;;;;;;;17.09;75.25;99872.34;5032978;28;20034;-67
2021/05/27 05:36:37;;;;;;;15.95;13.20;;;;;;;17.04;75.41;99880.81;5032787;28;20041;-68
2021/05/27 05:39:03;;;;;;;16.73;13.30;;;;;;;17.00;75.65;99875.91;5033275;28;20033;-70
2021/05/27 05:41:29;;;;;;;17.45;14.48;;;;;;;16.99;75.72;99880.44;5032661;28;20359;-70
2021/05/27 05:43:55;;;;;;;20.88;15.82;;;;;;;16.93;76.18;99881.88;5032996;28;20038;-69
2021/05/27 05:46:20;;;;;;;16.08;14.10;;;;;;;17.05;75.99;99879.00;5032725;28;20130;-70
2021/05/27 05:48:46;;;;;;;17.40;14.32;;;;;;;16.97;76.03;99885.09;5032877;28;20116;-70
2021/05/27 05:51:12;;;;;;;17.70;15.23;;;;;;;16.98;76.73;99881.41;5033036;28;20136;-69
2021/05/27 05:53:38;;;;;;;19.75;15.60;;;;;;;17.01;76.29;99867.78;5032495;28;20037;-68
2021/05/27 05:56:04;;;;;;;20.63;16.02;;;;;;;17.11;75.95;99883.72;5032440;28;20132;-67
2021/05/27 05:58:30;;;;;;;26.55;18.27;;;;;;;17.23;76.14;99870.91;5032611;28;20033;-68
2021/05/27 06:00:56;;;;;;;19.27;15.75;;;;;;;17.41;75.45;99873.56;5031400;28;20091;-67
2021/05/27 06:03:23;;;;;;;21.63;17.55;;;;;;;17.59;75.96;99871.63;5031629;28;20034;-69
2021/05/27 06:06:10;;;;;;;24.75;16.88;;;;;;;17.55;74.80;99870.28;5032149;28;20037;-67
2021/05/27 06:09:11;;;;;;;22.52;17.15;;;;;;;17.40;75.05;99874.53;5049352;28;20536;-68
2021/05/27 06:11:37;;;;;;;18.05;15.60;;;;;;;17.39;75.13;99870.19;5049034;28;20072;-68
2021/05/27 06:14:03;;;;;;;24.75;19.25;;;;;;;17.44;75.34;99867.88;5033051;28;20183;-71
2021/05/27 06:16:29;;;;;;;21.15;16.75;;;;;;;17.54;75.87;99867.78;5033265;28;20098;-72
2021/05/27 06:18:55;;;;;;;20.23;16.40;;;;;;;17.52;75.34;99875.97;5050323;28;20044;-70
2021/05/27 06:21:33;;;;;;;26.58;20.00;;;;;;;17.49;75.45;99870.91;5033453;28;20036;-76
2021/05/27 06:24:03;;;;;;;28.80;18.15;;;;;;;17.57;75.24;99873.63;5033889;28;20089;-74
2021/05/27 06:26:30;;;;;;;21.33;17.65;;;;;;;17.63;74.94;99872.16;5040021;28;20099;-72
2021/05/27 06:28:56;;;;;;;22.43;17.53;;;;;;;17.58;74.84;99871.78;5030199;28;20041;-74
2021/05/27 06:31:21;;;;;;;21.52;17.90;;;;;;;17.80;74.25;99870.41;5030123;28;20051;-70
2021/05/27 06:33:49;;;;;;;25.10;18.50;;;;;;;17.79;73.74;99876.75;5030207;28;20033;-73
2021/05/27 06:36:15;;;;;;;20.38;16.50;;;;;;;17.86;73.79;99877.78;5030171;28;20054;-73
2021/05/27 06:38:40;;;;;;;23.40;18.52;;;;;;;17.91;73.84;99880.81;5029987;28;20655;-71
2021/05/27 06:41:07;;;;;;;22.20;17.40;;;;;;;18.13;73.53;99883.94;5030042;28;20033;-74
2021/05/27 06:43:33;;;;;;;21.70;17.27;;;;;;;18.40;72.11;99887.34;4992607;28;20043;-72
2021/05/27 06:45:59;;;;;;;22.70;17.25;;;;;;;18.68;71.61;99887.91;4973996;28;20046;-72
2021/05/27 06:48:25;;;;;;;20.23;16.25;;;;;;;18.57;70.98;99891.72;4973858;28;20038;-72
2021/05/27 06:50:51;;;;;;;21.90;17.20;;;;;;;18.47;71.43;99901.78;4973919;28;20041;-73
2021/05/27 06:53:17;;;;;;;20.25;15.85;;;;;;;18.49;70.97;99888.22;4973722;28;20038;-72
2021/05/27 06:55:44;;;;;;;18.52;15.38;;;;;;;18.64;70.56;99885.72;4973574;28;20183;-73
2021/05/27 06:58:10;;;;;;;38.03;25.20;;;;;;;18.81;69.90;99898.13;4973438;28;20041;-72
2021/05/27 07:00:36;;;;;;;18.00;15.93;;;;;;;18.89;70.16;99890.09;4973058;28;20047;-73
2021/05/27 07:03:04;;;;;;;17.20;14.70;;;;;;;19.01;70.14;99897.84;4973702;28;20046;-73
2021/05/27 07:05:30;;;;;;;16.67;14.07;;;;;;;19.27;68.70;99894.13;4973469;28;20066;-72
2021/05/27 07:07:56;;;;;;;14.30;12.18;;;;;;;19.64;67.43;99884.66;4973407;28;20042;-72
2021/05/27 07:10:23;;;;;;;11.05;9.95;;;;;;;20.74;63.71;99883.81;4973093;28;20035;-72
2021/05/27 07:13:00;;;;;;;12.50;11.18;;;;;;;22.59;59.73;99876.91;4973490;28;20074;-74
2021/05/27 07:15:26;;;;;;;;;;;;;;;23.85;54.83;99872.66;4973230;28;20035;-74
2021/05/27 07:17:53;;;;;;;10.75;9.50;;;;;;;25.51;50.49;99875.03;4973280;28;19964;-73
2021/05/27 07:20:20;;;;;;;9.97;9.00;;;;;;;27.25;47.82;99870.50;4973393;28;20050;-72
2021/05/27 07:22:46;;;;;;;13.75;8.48;;;;;;;27.95;47.63;99857.66;4973387;28;20042;-73
2021/05/27 07:25:14;;;;;;;9.00;8.02;;;;;;;28.27;46.10;99857.47;4991613;28;20042;-73
2021/05/27 07:27:39;;;;;;;10.02;8.60;;;;;;;29.62;42.88;99857.78;5030890;28;20441;-73
2021/05/27 07:30:07;;;;;;;8.88;7.97;;;;;;;28.44;44.17;99858.47;5031686;28;20092;-73
2021/05/27 07:32:33;;;;;;;9.55;8.55;;;;;;;27.39;45.29;99866.63;5030763;28;20374;-75
2021/05/27 07:34:59;;;;;;;8.83;8.03;;;;;;;26.92;45.73;99866.22;5032334;28;20061;-72
2021/05/27 07:37:26;;;;;;;8.98;8.18;;;;;;;27.25;44.99;99867.78;5031725;28;20069;-75
2021/05/27 07:39:52;;;;;;;9.60;8.60;;;;;;;28.51;41.96;99867.38;5031860;28;20040;-74
2021/05/27 07:42:18;;;;;;;12.57;8.60;;;;;;;28.16;42.84;99865.34;5031658;28;20116;-74
2021/05/27 07:44:44;;;;;;;8.48;7.68;;;;;;;27.14;43.46;99880.22;5030353;28;20132;-72
2021/05/27 07:47:09;;;;;;;7.50;6.65;;;;;;;25.61;45.85;99886.25;5031711;28;20144;-74
2021/05/27 07:49:35;;;;;;;8.82;7.90;;;;;;;24.59;48.67;99878.31;5031691;28;20046;-73
2021/05/27 07:52:01;;;;;;;8.20;7.40;;;;;;;23.90;50.59;99880.97;5031627;28;20033;-73
2021/05/27 07:54:27;;;;;;;7.67;6.87;;;;;;;23.90;50.61;99878.28;5031563;28;20466;-72
2021/05/27 07:56:54;;;;;;;8.23;7.43;;;;;;;23.95;50.79;99875.00;5031540;28;20037;-75
2021/05/27 07:59:20;;;;;;;8.27;7.50;;;;;;;24.26;50.15;99873.63;5031722;28;20443;-74
2021/05/27 08:01:46;;;;;;;7.80;7.10;;;;;;;23.92;49.76;99866.47;5031430;28;20525;-71
2021/05/27 08:04:12;;;;;;;8.07;7.37;;;;;;;23.71;50.51;99866.34;5031467;28;20045;-76
2021/05/27 08:06:40;;;;;;;7.63;6.78;;;;;;;23.02;51.43;99878.72;5013967;28;20034;-76
2021/05/27 08:09:07;;;;;;;8.13;7.38;;;;;;;22.85;52.23;99880.03;5031932;28;20045;-72
2021/05/27 08:11:42;;;;;;;10.93;8.45;;;;;;;22.52;53.73;99880.53;5031690;28;20121;-74
2021/05/27 08:14:08;;;;;;;9.38;8.32;;;;;;;21.87;54.85;99885.75;5031590;28;20037;-70
2021/05/27 08:16:34;;;;;;;11.45;7.60;;;;;;;21.70;55.57;99875.19;5029368;28;20044;-70
2021/05/27 08:19:00;;;;;;;8.35;7.45;;;;;;;21.57;56.25;99878.53;5030457;28;20490;-69
2021/05/27 08:21:30;;;;;;;10.45;7.88;;;;;;;21.10;57.29;99872.41;5030959;28;20610;-70
2021/05/27 08:23:56;;;;;;;16.30;8.23;;;;;;;20.85;57.32;99880.69;5022826;28;20422;-71
2021/05/27 08:26:23;;;;;;;15.85;9.68;;;;;;;20.87;58.70;99879.69;5011332;28;20069;-74
2021/05/27 08:28:49;;;;;;;13.20;9.30;;;;;;;20.83;58.34;99881.88;5011698;28;20526;-75
2021/05/27 08:31:15;;;;;;;40.38;25.15;;;;;;;20.66;59.50;99881.13;5011660;28;20041;-74
2021/05/27 08:33:41;;;;;;;17.55;11.85;;;;;;;20.66;60.94;99876.63;5013062;28;20391;-72
2021/05/27 08:36:07;;;;;;;10.73;9.25;;;;;;;20.68;59.42;99885.31;5015269;28;20045;-72
2021/05/27 08:38:34;;;;;;;12.82;9.68;;;;;;;20.53;59.22;99881.75;5015040;28;20036;-73
2021/05/27 08:40:59;;;;;;;15.43;11.40;;;;;;;20.34;59.74;99875.00;5015178;28;20041;-75
2021/05/27 08:43:28;;;;;;;10.68;9.57;;;;;;;20.22;59.99;99879.91;5013801;28;20041;-72
2021/05/27 08:45:54;;;;;;;10.07;8.88;;;;;;;20.17;60.61;99883.13;5014903;28;20088;-73
2021/05/27 08:48:20;;;;;;;21.17;12.30;;;;;;;20.44;60.95;99886.34;5014962;28;20088;-73
2021/05/27 08:50:48;;;;;;;13.57;10.80;;;;;;;20.47;59.84;99883.31;5014890;28;20041;-73
2021/05/27 08:53:16;;;;;;;13.85;10.30;;;;;;;20.56;59.85;99881.41;5014677;28;20128;-73
2021/05/27 08:55:42;;;;;;;13.00;10.50;;;;;;;20.74;59.47;99881.13;5014527;28;20045;-75
2021/05/27 08:58:08;;;;;;;18.42;12.18;;;;;;;20.77;59.02;99872.72;5015103;28;20034;-71
2021/05/27 09:00:35;;;;;;;19.52;15.30;;;;;;;20.91;58.82;99870.22;5013450;28;20089;-73
2021/05/27 09:03:03;;;;;;;19.33;13.85;;;;;;;20.99;57.98;99868.31;5015356;28;20038;-74
2021/05/27 09:05:33;;;;;;;16.83;12.82;;;;;;;21.21;57.38;99879.22;5014344;28;20491;-75
2021/05/27 09:08:00;;;;;;;19.45;14.13;;;;;;;21.35;57.47;99885.63;5014617;28;20462;-74
2021/05/27 09:10:42;;;;;;;17.10;13.68;;;;;;;21.20;58.18;99892.81;5014718;28;20069;-74
2021/05/27 09:13:12;;;;;;;19.20;13.75;;;;;;;21.17;58.21;99889.50;5014148;28;20559;-74
2021/05/27 09:15:38;;;;;;;18.48;13.30;;;;;;;21.08;58.07;99887.06;5012931;28;20504;-74
2021/05/27 09:18:05;;;;;;;15.65;10.90;;;;;;;20.77;58.80;99880.78;5014204;28;20049;-75
2021/05/27 09:20:30;;;;;;;12.15;10.95;;;;;;;20.64;59.46;99889.38;5012953;28;20124;-72
2021/05/27 09:23:09;;;;;;;17.52;10.93;;;;;;;20.57;59.35;99888.41;5014287;28;20133;-76
2021/05/27 09:25:37;;;;;;;12.60;9.70;;;;;;;20.75;58.86;99884.63;5033849;28;20533;-72
2021/05/27 09:28:06;;;;;;;13.65;11.80;;;;;;;20.76;58.79;99880.94;5033846;28;20033;-75
2021/05/27 09:30:41;;;;;;;14.80;10.35;;;;;;;20.77;58.49;99883.47;5033692;28;20044;-74
2021/05/27 09:33:08;;;;;;;16.60;11.98;;;;;;;20.74;58.52;99878.44;5034162;28;20606;-74
2021/05/27 09:35:34;;;;;;;14.80;11.90;;;;;;;20.76;58.17;99887.16;5033711;28;20061;-75
2021/05/27 09:38:00;;;;;;;30.65;18.10;;;;;;;20.71;59.18;99883.28;5034016;28;20076;-72
2021/05/27 09:40:36;;;;;;;11.90;9.20;;;;;;;20.55;58.71;99879.72;5033814;28;20061;-77
2021/05/27 09:43:04;;;;;;;22.83;17.88;;;;;;;20.42;59.50;99888.34;5033726;28;20045;-74
2021/05/27 09:45:30;;;;;;;;;;;;;;;20.50;59.46;99882.13;5033704;28;20586;-73
2021/05/27 09:47:56;;;;;;;39.00;28.27;;;;;;;20.46;59.24;99881.63;5033688;28;20016;-73
2021/05/27 09:50:33;;;;;;;17.42;12.57;;;;;;;20.68;58.73;99888.00;5033388;28;20064;-73
2021/05/27 09:53:14;;;;;;;12.05;10.00;;;;;;;20.74;58.88;99874.91;5033607;28;20083;-71
2021/05/27 09:55:40;;;;;;;13.93;10.02;;;;;;;20.95;58.59;99880.44;5032974;28;20463;-73
2021/05/27 09:58:08;;;;;;;12.68;10.38;;;;;;;21.04;58.10;99883.91;5033349;28;20049;-75
2021/05/27 10:00:33;;;;;;;;;;;;;;;20.97;57.96;99883.81;5033386;28;20120;-73
2021/05/27 10:03:39;;;;;;;14.65;10.27;;;;;;;20.96;58.15;99881.28;5008910;28;20356;-71
2021/05/27 10:06:10;;;;;;;14.48;10.15;;;;;;;21.17;57.72;99884.13;5012449;28;20037;-75
2021/05/27 10:09:04;;;;;;;14.73;10.73;;;;;;;21.24;57.16;99883.38;5012337;28;20422;-73
2021/05/27 10:11:30;;;;;;;14.27;10.75;;;;;;;21.19;57.92;99883.94;5012646;28;20052;-72
2021/05/27 10:13:58;;;;;;;16.60;12.27;;;;;;;21.11;57.93;99879.47;5013110;28;20490;-75
2021/05/27 10:16:24;;;;;;;10.77;9.57;;;;;;;21.03;57.35;99884.09;5013496;28;20057;-73
2021/05/27 10:18:51;;;;;;;13.43;9.23;;;;;;;20.84;57.87;99878.19;5013156;28;20128;-75
2021/05/27 10:21:17;;;;;;;11.57;8.13;;;;;;;20.69;57.29;99875.41;5013378;28;20033;-75
2021/05/27 10:23:43;;;;;;;10.38;8.57;;;;;;;20.60;57.75;99887.22;5019082;28;20034;-76
2021/05/27 10:26:09;;;;;;;11.02;9.45;;;;;;;20.51;58.46;99883.75;5032677;28;20367;-74
2021/05/27 10:28:36;;;;;;;10.48;9.38;;;;;;;20.40;59.11;99893.09;5031199;28;20029;-74
2021/05/27 10:31:02;;;;;;;14.73;9.27;;;;;;;20.29;59.62;99888.13;5032630;28;20049;-75
2021/05/27 10:33:37;;;;;;;12.63;9.73;;;;;;;20.20;60.05;99887.31;5031711;28;20052;-74
2021/05/27 10:36:04;;;;;;;14.82;11.07;;;;;;;20.26;60.34;99894.69;5033114;28;20096;-73
2021/05/27 10:41:17;;;;;;;17.13;11.05;;;;;;;20.32;61.05;99898.50;5032599;28;20410;-73
2021/05/27 10:43:58;;;;;;;17.73;12.70;;;;;;;20.39;61.32;99886.03;5032304;28;20064;-76
2021/05/27 10:46:24;;;;;;;17.60;13.10;;;;;;;20.33;61.67;99892.13;5032498;28;20037;-73
2021/05/27 10:48:50;;;;;;;17.08;12.05;;;;;;;20.23;62.13;99896.88;5031155;28;20048;-72
2021/05/27 10:51:31;;;;;;;17.20;12.25;;;;;;;20.23;62.74;99892.31;5032578;28;20128;-70
2021/05/27 10:54:01;;;;;;;16.25;12.02;;;;;;;20.10;63.33;99889.38;5032202;28;20030;-71
2021/05/27 10:56:35;;;;;;;14.80;12.00;;;;;;;19.93;63.85;99891.31;5032405;28;20382;-75
2021/05/27 10:59:18;;;;;;;17.58;11.77;;;;;;;19.81;64.57;99896.19;5031326;28;20033;-73
2021/05/27 11:01:43;;;;;;;14.88;12.32;;;;;;;19.75;64.78;99895.03;5032306;28;20044;-72
2021/05/27 11:04:23;;;;;;;18.13;13.35;;;;;;;19.67;65.28;99892.38;5032537;28;20041;-71
2021/05/27 11:07:12;;;;;;;15.25;12.00;;;;;;;19.64;65.12;99887.31;5032169;28;20033;-71
2021/05/27 11:09:38;;;;;;;17.92;12.35;;;;;;;19.70;64.50;99887.50;5032241;28;20107;-73
2021/05/27 11:12:11;;;;;;;18.30;13.02;;;;;;;19.66;64.85;99885.31;5032027;28;20045;-74
2021/05/27 11:14:42;;;;;;;15.20;13.07;;;;;;;19.66;64.90;99879.94;5030823;28;20037;-74
2021/05/27 11:17:20;;;;;;;14.57;11.68;;;;;;;19.64;64.52;99871.22;5047310;28;20191;-74
2021/05/27 11:27:44;;;;;;;21.00;11.85;;;;;;;19.40;65.67;99884.56;5012153;28;20116;-72
2021/05/27 11:30:32;;;;;;;14.93;12.63;;;;;;;19.40;66.33;99887.25;5012169;28;20429;-70
2021/05/27 11:33:18;;;;;;;17.27;12.40;;;;;;;19.46;66.30;99892.91;5011815;28;20077;-72
2021/05/27 11:35:45;;;;;;;15.75;10.70;;;;;;;19.45;66.08;99886.72;5011937;28;20041;-72
2021/05/27 11:38:17;;;;;;;13.35;11.52;;;;;;;19.62;65.46;99894.72;5012684;28;20083;-74
2021/05/27 11:40:48;;;;;;;13.05;10.80;;;;;;;20.13;63.76;99889.03;5011961;28;20087;-74